createdAt,value
2018-06-09T00:00:02.973Z,31.51
2018-06-09T00:05:03.598Z,30.74
2018-06-09T00:10:03.336Z,30.17
2018-06-09T00:15:03.184Z,29.88
2018-06-09T00:20:02.883Z,29.48
2018-06-09T00:25:03.450Z,28.81
2018-06-09T00:30:03.090Z,28.71
2018-06-09T00:35:03.645Z,28.33
2018-06-09T00:40:03.392Z,28.04
2018-06-09T00:45:03.003Z,26.87
2018-06-09T00:50:03.609Z,26.49
2018-06-09T00:55:03.128Z,26.1
2018-06-09T01:00:03.749Z,25.43
2018-06-09T01:05:03.314Z,24.76
2018-06-09T01:10:02.961Z,24.57
2018-06-09T01:15:03.538Z,24.66
2018-06-09T01:20:03.156Z,25.15
2018-06-09T01:25:03.687Z,25.53
2018-06-09T01:30:03.356Z,26.19
2018-06-09T01:35:02.974Z,26.19
2018-06-09T01:40:03.637Z,26.48
2018-06-09T01:45:03.254Z,26.48
2018-06-09T01:50:02.927Z,26.28
2018-06-09T01:55:03.552Z,26.09
2018-06-09T02:00:03.098Z,25.81
2018-06-09T02:05:03.701Z,25.9
2018-06-09T02:10:03.382Z,25.52
2018-06-09T02:15:02.974Z,25.02
2018-06-09T02:20:03.642Z,24.55
2018-06-09T02:25:03.276Z,23.3
2018-06-09T02:30:02.931Z,22.82
2018-06-09T02:35:03.557Z,22.53
2018-06-09T02:40:03.161Z,21.86
2018-06-09T02:45:02.775Z,21.19
2018-06-09T02:50:03.392Z,20.42
2018-06-09T02:55:03.217Z,20.42
2018-06-09T03:00:02.860Z,19.85
2018-06-09T03:05:03.691Z,19.27
2018-06-09T03:10:03.408Z,18.79
2018-06-09T03:15:03.034Z,18.02
2018-06-09T03:20:03.844Z,17.35
2018-06-09T03:25:03.542Z,16.78
2018-06-09T03:30:03.189Z,16.01
2018-06-09T03:35:02.863Z,15.53
2018-06-09T03:40:03.460Z,15.05
2018-06-09T03:45:03.063Z,14.48
2018-06-09T03:50:03.751Z,14.19
2018-06-09T03:55:03.309Z,13.52
2018-06-09T04:00:02.933Z,12.85
2018-06-09T04:05:03.567Z,12.94
2018-06-09T04:10:03.237Z,13.04
2018-06-09T04:15:03.035Z,12.94
2018-06-09T04:20:03.682Z,12.66
2018-06-09T04:25:03.354Z,12.66
2018-06-09T04:30:03.157Z,12.47
2018-06-09T04:35:03.740Z,12.76
2018-06-09T04:40:03.744Z,12.57
2018-06-09T04:45:03.459Z,12.96
2018-06-09T04:50:03.059Z,13.24
2018-06-09T04:55:03.680Z,13.53
2018-06-09T05:00:03.283Z,13.34
2018-06-09T05:05:02.965Z,13.63
2018-06-09T05:10:03.591Z,13.92
2018-06-09T05:15:03.265Z,13.73
2018-06-09T05:20:02.822Z,14.4
2018-06-09T05:25:03.475Z,15.17
2018-06-09T05:30:03.084Z,14.88
2018-06-09T05:35:03.634Z,15.36
2018-06-09T05:40:03.257Z,16.42
2018-06-09T05:45:02.902Z,17.19
2018-06-09T05:50:03.543Z,17.19
2018-06-09T05:55:03.113Z,17.49
2018-06-09T06:00:03.716Z,17.39
2018-06-09T06:05:03.388Z,20.18
2018-06-09T06:10:03.059Z,22.12
2018-06-09T06:15:03.718Z,25.1
2018-06-09T06:20:03.409Z,24.52
2018-06-09T06:25:03.078Z,25.29
2018-06-09T06:30:03.812Z,26.64
2018-06-09T06:35:03.456Z,28.19
2018-06-09T06:40:03.036Z,30.11
2018-06-09T06:45:04.300Z,32.34
2018-06-09T06:50:03.043Z,36.29
2018-06-09T06:55:03.721Z,36.41
2018-06-09T07:00:03.596Z,37.66
2018-06-09T07:05:03.604Z,39.7
2018-06-09T07:10:03.265Z,43.96
2018-06-09T07:15:02.906Z,48.03
2018-06-09T07:20:03.551Z,52.09
2018-06-09T07:25:03.167Z,56.91
2018-06-09T07:30:03.773Z,56.33
2018-06-09T07:35:03.607Z,58.45
2018-06-09T07:40:03.334Z,60
2018-06-09T07:45:02.977Z,59.1
2018-06-09T07:50:03.628Z,58.91
2018-06-09T07:55:03.253Z,61.38
2018-06-09T08:00:03.695Z,64.89
2018-06-09T08:05:03.365Z,69.68
2018-06-09T08:10:03.065Z,77.94
2018-06-09T08:15:03.768Z,84.41
2018-06-09T08:20:03.466Z,87.26
2018-06-09T08:25:03.139Z,92.72
2018-06-09T08:30:03.681Z,98.05
2018-06-09T08:35:03.247Z,99.46
2018-06-09T08:40:02.918Z,99.99
2018-06-09T08:45:03.478Z,99.99
2018-06-09T08:50:03.146Z,99.99
2018-06-09T08:55:03.757Z,99.99
2018-06-09T09:00:03.443Z,99.99
2018-06-09T09:05:03.032Z,99.99
2018-06-09T09:10:04.051Z,99.99
2018-06-09T09:15:03.661Z,99.99
2018-06-09T09:20:03.367Z,99.99
2018-06-09T09:25:03.024Z,99.99
2018-06-09T09:30:03.615Z,99.99
2018-06-09T09:35:03.222Z,99.99
2018-06-09T09:40:02.875Z,99.99
2018-06-09T09:45:03.495Z,99.99
2018-06-09T09:50:03.094Z,99.99
2018-06-09T09:55:03.793Z,99.99
2018-06-09T10:00:03.413Z,99.99
2018-06-09T10:05:03.144Z,99.99
2018-06-09T10:10:02.820Z,99.99
2018-06-09T10:15:03.415Z,99.99
2018-06-09T10:20:03.012Z,99.99
2018-06-09T10:25:03.598Z,95.84
2018-06-09T10:30:03.235Z,95.84
2018-06-09T10:35:02.912Z,94.23
2018-06-09T10:40:03.633Z,92.71
2018-06-09T10:45:03.255Z,88.75
2018-06-09T10:50:02.876Z,88.45
2018-06-09T10:55:03.527Z,86.3
2018-06-09T11:00:03.228Z,85.36
2018-06-09T11:05:02.814Z,84.72
2018-06-09T11:10:03.861Z,82.4
2018-06-09T11:15:03.530Z,82.11
2018-06-09T11:20:03.220Z,80.29
2018-06-09T11:25:02.910Z,79.6
2018-06-09T11:30:03.535Z,79.21
2018-06-09T11:35:03.141Z,79.21
2018-06-09T11:40:02.820Z,78.72
2018-06-09T11:45:03.576Z,79.08
2018-06-09T11:50:03.210Z,78.63
2018-06-09T11:55:02.876Z,78.92
2018-06-09T12:00:03.492Z,78.27
2018-06-09T12:05:03.141Z,76.74
2018-06-09T12:10:03.782Z,76.44
2018-06-09T12:15:03.400Z,75.4
2018-06-09T12:20:03.027Z,75.3
2018-06-09T12:25:04.005Z,75.7
2018-06-09T12:30:03.720Z,75.76
2018-06-09T12:35:03.342Z,76.44
2018-06-09T12:40:03.024Z,75.89
2018-06-09T12:45:03.658Z,75.01
2018-06-09T12:50:03.239Z,75.46
2018-06-09T12:55:02.878Z,75.37
2018-06-09T13:00:03.502Z,74.93
2018-06-09T13:05:03.189Z,75.72
2018-06-09T13:10:02.953Z,74.87
2018-06-09T13:15:03.610Z,74.54
2018-06-09T13:20:03.359Z,74.44
2018-06-09T13:25:02.965Z,74.48
2018-06-09T13:30:03.562Z,73.79
2018-06-09T13:35:03.296Z,74.29
2018-06-09T13:40:02.933Z,73.6
2018-06-09T13:45:03.555Z,72.61
2018-06-09T13:50:03.173Z,72.42
2018-06-09T13:55:03.794Z,71.83
2018-06-09T14:00:03.383Z,72.38
2018-06-09T14:05:02.996Z,72.84
2018-06-09T14:10:03.638Z,73.72
2018-06-09T14:15:03.319Z,74.15
2018-06-09T14:20:02.980Z,73.07
2018-06-09T14:25:03.596Z,72.42
2018-06-09T14:30:03.256Z,72.81
2018-06-09T14:35:02.877Z,71.83
2018-06-09T14:40:03.597Z,72.03
2018-06-09T14:45:03.213Z,73.3
2018-06-09T14:50:02.776Z,72.81
2018-06-09T14:55:03.385Z,73.43
2018-06-09T15:00:02.980Z,73.92
2018-06-09T15:05:03.587Z,74.18
2018-06-09T15:10:03.180Z,74.24
2018-06-09T15:15:03.787Z,74.57
2018-06-09T15:20:03.411Z,75.05
2018-06-09T15:25:02.960Z,74.18
2018-06-09T15:30:03.706Z,74.66
2018-06-09T15:35:03.342Z,74.82
2018-06-09T15:40:02.992Z,75.12
2018-06-09T15:45:03.590Z,75.18
2018-06-09T15:50:03.133Z,74.69
2018-06-09T15:55:02.811Z,75.54
2018-06-09T16:00:03.444Z,75.83
2018-06-09T16:05:03.079Z,76.03
2018-06-09T16:10:03.677Z,76.87
2018-06-09T16:15:03.272Z,77.42
2018-06-09T16:20:03.029Z,78.1
2018-06-09T16:25:03.664Z,78.39
2018-06-09T16:30:03.317Z,79.33
2018-06-09T16:35:03.666Z,79.79
2018-06-09T16:40:03.409Z,80.08
2018-06-09T16:45:03.011Z,80.27
2018-06-09T16:50:03.590Z,80.18
2018-06-09T16:55:03.224Z,81.17
2018-06-09T17:00:02.830Z,81.46
2018-06-09T17:05:03.452Z,81.46
2018-06-09T17:10:03.130Z,82.2
2018-06-09T17:15:03.715Z,83.08
2018-06-09T17:20:03.345Z,83.43
2018-06-09T17:25:02.884Z,84.4
2018-06-09T17:30:03.461Z,85.33
2018-06-09T17:35:03.097Z,86.85
2018-06-09T17:40:03.768Z,88.17
2018-06-09T17:45:03.508Z,89.24
2018-06-09T17:50:03.065Z,90.8
2018-06-09T17:55:03.644Z,92.41
2018-06-09T18:00:03.280Z,93.19
2018-06-09T18:05:02.980Z,94.11
2018-06-09T18:10:03.595Z,95.38
2018-06-09T18:15:03.175Z,96.3
2018-06-09T18:20:03.749Z,99.8
2018-06-09T18:25:03.366Z,99.99
2018-06-09T18:30:03.043Z,99.99
2018-06-09T18:35:03.683Z,99.99
2018-06-09T18:40:03.342Z,99.99
2018-06-09T18:45:02.967Z,99.99
2018-06-09T18:50:03.521Z,99.99
2018-06-09T18:55:03.081Z,99.99
2018-06-09T19:00:03.665Z,99.99
2018-06-09T19:05:03.233Z,99.99
2018-06-09T19:10:02.802Z,99.99
2018-06-09T19:15:03.393Z,99.99
2018-06-09T19:20:03.084Z,99.99
2018-06-09T19:25:03.702Z,99.99
2018-06-09T19:30:03.248Z,99.99
2018-06-09T19:35:03.801Z,99.99
2018-06-09T19:40:03.434Z,99.99
2018-06-09T19:45:03.012Z,99.99
2018-06-09T19:50:03.758Z,99.99
2018-06-09T19:55:03.252Z,99.99
2018-06-09T20:00:02.840Z,99.99
2018-06-09T20:05:03.335Z,99.99
2018-06-09T20:10:03.018Z,99.99
2018-06-09T20:15:04.028Z,99.99
2018-06-09T20:20:03.652Z,99.99
2018-06-09T20:25:03.299Z,99.99
2018-06-09T20:30:03.115Z,99.99
2018-06-09T20:35:03.785Z,99.99
2018-06-09T20:40:03.485Z,99.99
2018-06-09T20:45:03.148Z,99.99
2018-06-09T20:50:03.743Z,99.99
2018-06-09T20:55:03.322Z,99.6
2018-06-09T21:00:03.068Z,98.88
2018-06-09T21:05:03.622Z,98
2018-06-09T21:10:03.275Z,97.04
2018-06-09T21:15:02.913Z,96.03
2018-06-09T21:20:03.905Z,96.03
2018-06-09T21:25:03.561Z,95.35
2018-06-09T21:30:03.564Z,94.2
2018-06-09T21:35:03.236Z,93.62
2018-06-09T21:40:02.873Z,92.32
2018-06-09T21:45:03.471Z,91.06
2018-06-09T21:50:03.078Z,90.38
2018-06-09T21:55:03.714Z,90.24
2018-06-09T22:00:03.294Z,90.15
2018-06-09T22:05:02.903Z,89.67
2018-06-09T22:10:03.598Z,88.99
2018-06-09T22:15:03.157Z,88.51
2018-06-09T22:20:03.771Z,90.48
2018-06-09T22:25:03.353Z,91.06
2018-06-09T22:30:02.981Z,89.72
2018-06-09T22:35:03.651Z,88.37
2018-06-09T22:40:03.353Z,86.98
2018-06-09T22:45:02.974Z,87.17
2018-06-09T22:50:03.583Z,87.55
2018-06-09T22:55:03.188Z,87.26
2018-06-09T23:00:02.779Z,85.82
2018-06-09T23:05:03.648Z,82.64
2018-06-09T23:10:03.367Z,77.59
2018-06-09T23:15:02.984Z,73.65
2018-06-09T23:20:03.595Z,70.28
2018-06-09T23:25:03.244Z,66.71
2018-06-09T23:30:02.827Z,65.27
2018-06-09T23:35:03.501Z,63.34
2018-06-09T23:40:03.182Z,62.06
2018-06-09T23:45:03.764Z,60.52
2018-06-09T23:50:03.377Z,60.24
2018-06-09T23:55:03.020Z,60.81
